Time;durP1;ratioP1;P1;durP2;ratioP2;P2;SDS_P1;SDS_P2;PMS_P1;PMS_P2;Temp;Humidity;BMP_temperature;BMP_pressure;BME280_temperature;BME280_humidity;BME280_pressure;Samples;Min_cycle;Max_cycle;Signal;HPM_P1;HPM_P2
2023/05/26 03:00:44;;;;;;;;;;;20.70;43.80;;;;;;5854145;23;45716;-62
2023/05/26 03:03:10;;;;;;;;;;;20.70;43.90;;;;;;4932233;28;47871;-60
2023/05/26 03:05:36;;;;;;;;;;;20.60;43.90;;;;;;4972487;28;46137;-62
2023/05/26 03:08:03;;;;;;;;;;;20.70;43.90;;;;;;4992049;28;44905;-58
2023/05/26 03:10:29;;;;;;;;;;;20.60;43.80;;;;;;4964070;28;45648;-60
2023/05/26 03:12:54;;;;;;;;;;;20.60;43.80;;;;;;4983388;28;45554;-60
2023/05/26 03:15:20;;;;;;;;;;;20.70;43.80;;;;;;4989906;28;46450;-60
2023/05/26 03:17:45;;;;;;;;;;;20.60;43.80;;;;;;4984645;28;45521;-58
2023/05/26 03:20:11;;;;;;;;;;;20.60;43.70;;;;;;4957430;28;45215;-59
2023/05/26 03:22:36;;;;;;;;;;;20.60;43.70;;;;;;5000628;28;44908;-59
2023/05/26 03:25:02;;;;;;;;;;;20.60;43.70;;;;;;4983915;28;45537;-63
2023/05/26 03:27:28;;;;;;;;;;;20.70;43.80;;;;;;4982370;28;45326;-59
2023/05/26 03:29:53;;;;;;;;;;;20.60;43.70;;;;;;5000324;28;45170;-56
2023/05/26 03:32:19;;;;;;;;;;;20.60;43.80;;;;;;4984086;28;45305;-57
2023/05/26 03:34:45;;;;;;;;;;;20.60;43.90;;;;;;5006431;28;45543;-58
2023/05/26 03:37:11;;;;;;;;;;;20.60;43.80;;;;;;4972626;28;45589;-58
2023/05/26 03:39:37;;;;;;;;;;;20.60;43.90;;;;;;5001648;28;45646;-59
2023/05/26 03:42:03;;;;;;;;;;;20.60;43.90;;;;;;4959414;28;45247;-58
2023/05/26 03:44:28;;;;;;;;;;;20.60;43.90;;;;;;4985246;28;45422;-58
2023/05/26 03:46:54;;;;;;;;;;;20.60;43.90;;;;;;4976180;28;45388;-56
2023/05/26 03:49:19;;;;;;;;;;;20.60;43.90;;;;;;4994946;28;46313;-58
2023/05/26 03:51:45;;;;;;;;;;;20.60;43.90;;;;;;4976205;28;45263;-60
2023/05/26 03:54:10;;;;;;;;;;;20.60;44.00;;;;;;4982953;28;45428;-61
2023/05/26 03:56:36;;;;;;;;;;;20.50;43.90;;;;;;4991156;28;45228;-60
2023/05/26 03:59:02;;;;;;;;;;;20.50;44.00;;;;;;5001095;28;45532;-58
2023/05/26 04:01:28;;;;;;;;;;;20.50;44.00;;;;;;4986170;28;45283;-59
2023/05/26 04:03:54;;;;;;;;;;;20.50;44.10;;;;;;4967124;28;47428;-62
2023/05/26 04:06:19;;;;;;;;;;;20.50;44.10;;;;;;4946133;28;45513;-61
2023/05/26 04:08:47;;;;;;;;;;;20.50;44.20;;;;;;5001497;28;45554;-61
2023/05/26 04:11:13;;;;;;;;;;;20.50;44.20;;;;;;4958265;28;45068;-59
2023/05/26 04:13:38;;;;;;;;;;;20.50;44.30;;;;;;4982632;28;46125;-59
2023/05/26 04:16:04;;;;;;;;;;;20.50;44.40;;;;;;4976971;28;45488;-59
2023/05/26 04:18:30;;;;;;;;;;;20.50;44.40;;;;;;4969331;28;45357;-62
2023/05/26 04:20:55;;;;;;;;;;;20.40;44.40;;;;;;4998526;28;45321;-61
2023/05/26 04:23:21;;;;;;;;;;;20.40;44.50;;;;;;4994725;28;45800;-60
2023/05/26 04:25:47;;;;;;;;;;;20.40;44.60;;;;;;5002756;28;45666;-58
2023/05/26 04:28:14;;;;;;;;;;;20.40;44.70;;;;;;5004030;28;45538;-60
2023/05/26 04:30:40;;;;;;;;;;;20.40;44.90;;;;;;4994259;28;45436;-62
2023/05/26 04:33:07;;;;;;;;;;;20.30;45.00;;;;;;4999129;28;45264;-62
2023/05/26 04:35:33;;;;;;;;;;;20.30;45.20;;;;;;4967235;28;45749;-61
2023/05/26 04:37:59;;;;;;;;;;;20.30;45.20;;;;;;4961623;28;45447;-58
2023/05/26 04:40:24;;;;;;;;;;;20.20;45.30;;;;;;4998563;28;45592;-60
2023/05/26 04:42:50;;;;;;;;;;;20.20;45.40;;;;;;5002709;28;45565;-60
2023/05/26 04:45:15;;;;;;;;;;;20.20;45.50;;;;;;4969773;28;45083;-60
2023/05/26 04:47:42;;;;;;;;;;;20.20;45.60;;;;;;4956310;28;45062;-63
2023/05/26 04:50:12;;;;;;;;;;;20.20;45.70;;;;;;4976222;28;45257;-56
2023/05/26 04:52:38;;;;;;;;;;;20.10;45.70;;;;;;4979395;28;45273;-60
2023/05/26 04:55:04;;;;;;;;;;;20.10;45.80;;;;;;4995310;28;45541;-63
2023/05/26 04:57:30;;;;;;;;;;;20.10;45.90;;;;;;4950236;28;45598;-60
2023/05/26 04:59:55;;;;;;;;;;;20.10;46.10;;;;;;4993315;28;44859;-62
2023/05/26 05:02:21;;;;;;;;;;;20.10;46.30;;;;;;4958364;28;45270;-60
2023/05/26 05:04:46;;;;;;;;;;;20.00;46.30;;;;;;4974905;28;45466;-60
2023/05/26 05:07:12;;;;;;;;;;;20.00;46.40;;;;;;4974322;28;45175;-58
2023/05/26 05:09:37;;;;;;;;;;;20.00;46.50;;;;;;4994427;28;45543;-58
2023/05/26 05:12:03;;;;;;;;;;;20.00;46.50;;;;;;4991054;28;46794;-59
2023/05/26 05:14:29;;;;;;;;;;;20.00;46.60;;;;;;5000890;28;45001;-58
2023/05/26 05:16:54;;;;;;;;;;;20.00;46.60;;;;;;4973519;28;45025;-59
2023/05/26 05:19:20;;;;;;;;;;;20.00;46.90;;;;;;5003041;28;45734;-59
2023/05/26 05:21:45;;;;;;;;;;;20.00;46.90;;;;;;4985228;28;45484;-58
2023/05/26 05:24:10;;;;;;;;;;;20.00;46.90;;;;;;4998990;28;45170;-60
2023/05/26 05:26:37;;;;;;;;;;;20.00;46.90;;;;;;4976335;28;45429;-59
2023/05/26 05:29:03;;;;;;;;;;;20.00;46.80;;;;;;4975864;28;45440;-61
2023/05/26 05:31:28;;;;;;;;;;;19.90;46.90;;;;;;4978680;28;45897;-58
2023/05/26 05:33:54;;;;;;;;;;;20.00;47.00;;;;;;4991758;28;45434;-62
2023/05/26 05:36:19;;;;;;;;;;;20.00;47.00;;;;;;4947313;28;46351;-63
2023/05/26 05:38:45;;;;;;;;;;;20.00;47.00;;;;;;4999614;28;45752;-59
2023/05/26 05:41:10;;;;;;;;;;;20.00;47.10;;;;;;5004338;28;46339;-60
2023/05/26 05:43:36;;;;;;;;;;;20.00;47.10;;;;;;4966739;28;48462;-62
2023/05/26 05:46:01;;;;;;;;;;;20.00;47.10;;;;;;4978938;28;45229;-61
2023/05/26 05:48:27;;;;;;;;;;;20.00;47.10;;;;;;5000683;28;45018;-58
2023/05/26 05:50:52;;;;;;;;;;;20.00;47.10;;;;;;4986876;28;45584;-60
2023/05/26 05:53:18;;;;;;;;;;;20.00;47.10;;;;;;5011331;28;45392;-59
2023/05/26 05:55:46;;;;;;;;;;;20.00;46.90;;;;;;4960952;28;45336;-61
2023/05/26 05:58:13;;;;;;;;;;;20.10;47.00;;;;;;5009310;28;44640;-60
2023/05/26 06:00:38;;;;;;;;;;;20.10;47.00;;;;;;4979361;28;45546;-60
2023/05/26 06:03:03;;;;;;;;;;;20.10;47.00;;;;;;4987935;28;45305;-61
2023/05/26 06:05:29;;;;;;;;;;;20.20;47.10;;;;;;4998933;28;45224;-60
2023/05/26 06:07:54;;;;;;;;;;;20.20;47.20;;;;;;5006419;28;46422;-60
2023/05/26 06:10:20;;;;;;;;;;;20.20;47.20;;;;;;4999574;28;45419;-61
2023/05/26 06:12:45;;;;;;;;;;;20.20;47.20;;;;;;5007980;28;44803;-60
2023/05/26 06:15:11;;;;;;;;;;;20.30;47.10;;;;;;5004192;28;45414;-61
2023/05/26 06:17:36;;;;;;;;;;;20.30;47.10;;;;;;4978350;28;44775;-60
2023/05/26 06:20:02;;;;;;;;;;;20.30;47.10;;;;;;5004673;28;46897;-63
2023/05/26 06:22:28;;;;;;;;;;;20.30;47.00;;;;;;4951875;28;45168;-61
2023/05/26 06:24:53;;;;;;;;;;;20.30;47.00;;;;;;4984463;28;45272;-59
2023/05/26 06:27:18;;;;;;;;;;;20.30;47.00;;;;;;4993183;28;46493;-60
2023/05/26 06:29:44;;;;;;;;;;;20.30;46.90;;;;;;4987277;28;45547;-60
2023/05/26 06:32:09;;;;;;;;;;;20.30;46.90;;;;;;4998899;28;45488;-60
2023/05/26 06:34:35;;;;;;;;;;;20.40;47.00;;;;;;5006539;28;45705;-60
2023/05/26 06:37:00;;;;;;;;;;;20.40;46.90;;;;;;4974824;28;45400;-60
2023/05/26 06:39:26;;;;;;;;;;;20.40;46.80;;;;;;4995117;28;45281;-60
2023/05/26 06:41:51;;;;;;;;;;;20.50;46.80;;;;;;4998179;28;46478;-60
2023/05/26 06:44:17;;;;;;;;;;;20.50;46.70;;;;;;4987163;28;45687;-59
2023/05/26 06:46:42;;;;;;;;;;;20.60;46.60;;;;;;5004620;28;45736;-61
2023/05/26 06:49:08;;;;;;;;;;;20.60;46.50;;;;;;5005236;28;46120;-60
2023/05/26 06:51:33;;;;;;;;;;;20.60;46.50;;;;;;5003245;28;45252;-59
2023/05/26 06:53:59;;;;;;;;;;;20.70;46.70;;;;;;5007010;28;45704;-58
2023/05/26 06:56:26;;;;;;;;;;;20.70;46.50;;;;;;4981990;28;46594;-60
2023/05/26 06:58:51;;;;;;;;;;;20.70;46.50;;;;;;5003583;28;45399;-59
2023/05/26 07:01:17;;;;;;;;;;;20.70;46.50;;;;;;4988123;28;45320;-60
2023/05/26 07:03:42;;;;;;;;;;;20.80;46.60;;;;;;5005806;28;45667;-60
2023/05/26 07:06:08;;;;;;;;;;;20.80;46.40;;;;;;4964151;28;46155;-59
2023/05/26 07:08:33;;;;;;;;;;;20.80;46.40;;;;;;4986408;28;45202;-61
2023/05/26 07:10:58;;;;;;;;;;;20.90;46.30;;;;;;4982167;28;45421;-58
2023/05/26 07:13:24;;;;;;;;;;;21.00;46.30;;;;;;5009633;28;45348;-58
2023/05/26 07:15:51;;;;;;;;;;;21.00;46.10;;;;;;4997038;28;45434;-60
2023/05/26 07:18:16;;;;;;;;;;;21.00;46.10;;;;;;4971858;28;45394;-61
2023/05/26 07:20:42;;;;;;;;;;;21.10;46.00;;;;;;4990462;28;45228;-60
2023/05/26 07:23:07;;;;;;;;;;;21.10;45.90;;;;;;4977247;28;45085;-58
2023/05/26 07:25:32;;;;;;;;;;;21.20;45.90;;;;;;4980734;28;45105;-59
2023/05/26 07:27:58;;;;;;;;;;;21.20;45.90;;;;;;4989545;28;45478;-59
2023/05/26 07:30:23;;;;;;;;;;;21.30;45.80;;;;;;4994146;28;45534;-60
2023/05/26 07:32:49;;;;;;;;;;;21.20;45.90;;;;;;4979381;28;45489;-58
2023/05/26 07:35:14;;;;;;;;;;;21.20;46.00;;;;;;4998889;28;45433;-60
2023/05/26 07:37:40;;;;;;;;;;;21.20;45.90;;;;;;4965765;28;46441;-60
2023/05/26 07:40:07;;;;;;;;;;;21.30;45.80;;;;;;4979386;28;46373;-59
2023/05/26 07:42:32;;;;;;;;;;;21.30;46.00;;;;;;4985877;28;44956;-61
2023/05/26 07:44:58;;;;;;;;;;;21.30;45.80;;;;;;5008992;28;44946;-60
2023/05/26 07:47:23;;;;;;;;;;;21.40;45.90;;;;;;4988948;28;45197;-60
2023/05/26 07:49:49;;;;;;;;;;;21.50;45.90;;;;;;5005918;28;45471;-61
2023/05/26 07:52:15;;;;;;;;;;;21.50;45.90;;;;;;4984938;28;45421;-59
2023/05/26 07:54:40;;;;;;;;;;;21.50;45.70;;;;;;4987968;28;45191;-60
2023/05/26 07:57:06;;;;;;;;;;;21.50;45.70;;;;;;4981505;28;46567;-60
2023/05/26 07:59:31;;;;;;;;;;;21.50;45.80;;;;;;4974571;28;44713;-60
2023/05/26 08:01:56;;;;;;;;;;;21.50;45.80;;;;;;4992812;28;45469;-59
2023/05/26 08:04:22;;;;;;;;;;;21.50;45.80;;;;;;4986419;28;45791;-59
2023/05/26 08:06:47;;;;;;;;;;;21.60;46.40;;;;;;4997255;28;46223;-60
2023/05/26 08:09:13;;;;;;;;;;;21.50;45.60;;;;;;5006339;28;45342;-59
2023/05/26 08:11:39;;;;;;;;;;;21.60;45.70;;;;;;4979456;28;45136;-59
2023/05/26 08:14:04;;;;;;;;;;;21.60;45.70;;;;;;4982215;28;45350;-60
2023/05/26 08:16:30;;;;;;;;;;;21.70;45.80;;;;;;4995362;28;45297;-59
2023/05/26 08:18:55;;;;;;;;;;;21.70;45.80;;;;;;5002442;28;45517;-60
2023/05/26 08:21:21;;;;;;;;;;;21.70;45.50;;;;;;4994759;28;45039;-59
2023/05/26 08:23:46;;;;;;;;;;;21.70;45.40;;;;;;4988893;28;45379;-58
2023/05/26 08:26:12;;;;;;;;;;;21.80;45.60;;;;;;4973481;28;45267;-58
2023/05/26 08:28:37;;;;;;;;;;;21.80;45.50;;;;;;5003310;28;45425;-59
2023/05/26 08:31:03;;;;;;;;;;;21.80;45.50;;;;;;4975033;28;47076;-60
2023/05/26 08:33:28;;;;;;;;;;;21.90;45.80;;;;;;4983078;28;45814;-61
2023/05/26 08:35:54;;;;;;;;;;;21.90;45.60;;;;;;5001021;28;46080;-60
2023/05/26 08:38:19;;;;;;;;;;;21.90;45.40;;;;;;4986757;28;44946;-61
2023/05/26 08:40:45;;;;;;;;;;;21.90;45.30;;;;;;4994829;28;44992;-60
2023/05/26 08:43:11;;;;;;;;;;;21.90;45.30;;;;;;4949563;28;45542;-57
2023/05/26 08:45:37;;;;;;;;;;;21.90;45.30;;;;;;4982128;28;45072;-58
2023/05/26 08:48:02;;;;;;;;;;;22.00;45.40;;;;;;4981534;28;45412;-59
2023/05/26 08:50:31;;;;;;;;;;;22.00;45.50;;;;;;4980182;28;45758;-58
2023/05/26 08:52:58;;;;;;;;;;;22.00;45.30;;;;;;5005237;28;45437;-61
2023/05/26 08:55:24;;;;;;;;;;;22.10;45.50;;;;;;4961828;28;47163;-62
2023/05/26 08:57:49;;;;;;;;;;;22.10;45.40;;;;;;4984969;28;45451;-59
2023/05/26 09:00:16;;;;;;;;;;;22.10;45.20;;;;;;4980752;28;45406;-58
2023/05/26 09:02:42;;;;;;;;;;;22.10;45.20;;;;;;4968928;28;45347;-58
2023/05/26 09:05:07;;;;;;;;;;;22.10;45.20;;;;;;4982080;28;45451;-60
2023/05/26 09:07:33;;;;;;;;;;;22.20;45.50;;;;;;4986844;28;45339;-60
2023/05/26 09:10:19;;;;;;;;;;;22.20;45.20;;;;;;5000039;28;45157;-62
2023/05/26 09:12:44;;;;;;;;;;;22.30;45.10;;;;;;5007471;28;44884;-61
2023/05/26 09:15:10;;;;;;;;;;;22.30;44.90;;;;;;4984939;28;47320;-62
2023/05/26 09:17:35;;;;;;;;;;;22.30;45.00;;;;;;4945732;28;44848;-59
2023/05/26 09:20:01;;;;;;;;;;;22.30;44.80;;;;;;5007134;28;45217;-60
2023/05/26 09:22:30;;;;;;;;;;;22.30;44.80;;;;;;4954630;28;45240;-60
2023/05/26 09:24:56;;;;;;;;;;;22.40;44.90;;;;;;4987677;28;46736;-58
2023/05/26 09:27:22;;;;;;;;;;;22.40;44.90;;;;;;5001159;28;45260;-58
2023/05/26 09:29:51;;;;;;;;;;;22.40;44.80;;;;;;4993301;28;45679;-59
2023/05/26 09:32:16;;;;;;;;;;;22.40;44.80;;;;;;4990107;28;45356;-60
2023/05/26 09:34:42;;;;;;;;;;;22.40;44.80;;;;;;4970474;28;47410;-61
2023/05/26 09:37:11;;;;;;;;;;;22.40;44.40;;;;;;4982619;28;45205;-58
2023/05/26 09:39:36;;;;;;;;;;;22.50;44.40;;;;;;4987534;28;45392;-60
2023/05/26 09:42:04;;;;;;;;;;;22.50;44.50;;;;;;4977182;28;45865;-62
2023/05/26 09:44:30;;;;;;;;;;;22.60;44.70;;;;;;5005281;28;45479;-59
2023/05/26 09:46:55;;;;;;;;;;;22.60;44.60;;;;;;4971625;28;45335;-60
2023/05/26 09:49:21;;;;;;;;;;;22.60;44.40;;;;;;4987684;28;45567;-60
2023/05/26 09:51:48;;;;;;;;;;;22.70;44.30;;;;;;4985998;28;45715;-57
2023/05/26 09:54:13;;;;;;;;;;;22.70;44.10;;;;;;5004565;28;45219;-60
2023/05/26 09:56:52;;;;;;;;;;;22.70;44.30;;;;;;5000035;28;45068;-61
2023/05/26 09:59:18;;;;;;;;;;;22.80;44.00;;;;;;5005442;28;45148;-59
2023/05/26 10:01:43;;;;;;;;;;;22.80;44.00;;;;;;4960202;28;45233;-60
2023/05/26 10:04:09;;;;;;;;;;;22.80;44.30;;;;;;4982551;28;45575;-60
2023/05/26 10:06:35;;;;;;;;;;;22.80;44.10;;;;;;4958214;28;45898;-61
2023/05/26 10:09:01;;;;;;;;;;;22.90;44.10;;;;;;5002272;28;45621;-59
2023/05/26 10:11:27;;;;;;;;;;;22.90;43.90;;;;;;4981994;28;45575;-58
2023/05/26 10:13:54;;;;;;;;;;;22.90;43.70;;;;;;4985845;28;45605;-59
2023/05/26 10:16:20;;;;;;;;;;;23.00;43.80;;;;;;4981525;28;45365;-61
2023/05/26 10:18:45;;;;;;;;;;;23.00;43.70;;;;;;4971208;28;45542;-59
2023/05/26 10:21:11;;;;;;;;;;;23.00;43.50;;;;;;4983541;28;45195;-59
2023/05/26 10:23:39;;;;;;;;;;;23.00;43.40;;;;;;4970318;28;45151;-60
2023/05/26 10:26:09;;;;;;;;;;;23.00;43.40;;;;;;5001153;28;45558;-60
2023/05/26 10:28:37;;;;;;;;;;;23.00;43.40;;;;;;4986761;28;45372;-60
2023/05/26 10:31:03;;;;;;;;;;;23.00;42.90;;;;;;4984627;28;45931;-61
2023/05/26 10:33:58;;;;;;;;;;;23.10;42.90;;;;;;5004544;28;45451;-60
2023/05/26 10:36:23;;;;;;;;;;;23.10;42.90;;;;;;4976817;28;45394;-59
2023/05/26 10:38:50;;;;;;;;;;;23.10;42.80;;;;;;4988514;28;46066;-59
2023/05/26 10:41:29;;;;;;;;;;;23.10;42.90;;;;;;4960895;28;45319;-59
2023/05/26 10:43:55;;;;;;;;;;;23.20;42.80;;;;;;4988346;28;45662;-59
2023/05/26 10:46:21;;;;;;;;;;;23.20;42.50;;;;;;4998731;28;44862;-61
2023/05/26 10:48:56;;;;;;;;;;;23.20;42.20;;;;;;4988122;28;45510;-60
2023/05/26 10:51:25;;;;;;;;;;;23.20;42.40;;;;;;4997952;28;45627;-60
2023/05/26 10:53:51;;;;;;;;;;;23.20;42.20;;;;;;4987532;28;45599;-60
2023/05/26 10:56:18;;;;;;;;;;;23.20;41.90;;;;;;4984095;28;45314;-60
2023/05/26 10:58:45;;;;;;;;;;;23.30;41.90;;;;;;5008049;28;45503;-60
2023/05/26 11:01:16;;;;;;;;;;;23.30;42.10;;;;;;4962923;28;45345;-60
2023/05/26 11:03:49;;;;;;;;;;;23.30;41.90;;;;;;4987372;28;45600;-59
2023/05/26 11:30:15;;;;;;;;;;;23.50;41.90;;;;;;4975321;28;45588;-59
2023/05/26 11:32:47;;;;;;;;;;;23.50;41.90;;;;;;4979021;28;45465;-59
2023/05/26 11:35:26;;;;;;;;;;;23.60;42.00;;;;;;4978332;28;45731;-62
2023/05/26 11:37:55;;;;;;;;;;;23.60;41.90;;;;;;4990763;28;45466;-59
2023/05/26 11:40:21;;;;;;;;;;;23.60;41.40;;;;;;4967180;28;45648;-59
2023/05/26 11:42:54;;;;;;;;;;;23.60;41.30;;;;;;4987962;28;45623;-57
2023/05/26 11:45:20;;;;;;;;;;;23.70;41.20;;;;;;4984315;28;45199;-62
2023/05/26 11:47:54;;;;;;;;;;;23.70;41.00;;;;;;4999791;28;45012;-61
2023/05/26 11:50:19;;;;;;;;;;;23.70;40.70;;;;;;4994843;28;45522;-60
2023/05/26 11:52:56;;;;;;;;;;;23.70;40.80;;;;;;4988699;28;45486;-61
2023/05/26 11:55:22;;;;;;;;;;;23.80;40.90;;;;;;4997840;28;45726;-61
2023/05/26 11:57:50;;;;;;;;;;;23.70;40.70;;;;;;5005413;28;45506;-60
2023/05/26 12:00:17;;;;;;;;;;;23.80;40.80;;;;;;4955646;28;46452;-60
2023/05/26 12:02:46;;;;;;;;;;;23.80;40.60;;;;;;4994569;28;45243;-60
2023/05/26 12:05:15;;;;;;;;;;;23.80;40.50;;;;;;4993096;28;45589;-60
2023/05/26 12:07:41;;;;;;;;;;;23.80;40.60;;;;;;4954711;28;45167;-61
2023/05/26 12:10:07;;;;;;;;;;;23.90;40.60;;;;;;4972637;28;46382;-62
2023/05/26 12:12:48;;;;;;;;;;;23.90;40.60;;;;;;4985519;28;46197;-59
2023/05/26 12:15:21;;;;;;;;;;;23.90;40.40;;;;;;4963375;28;45555;-60
2023/05/26 12:17:46;;;;;;;;;;;23.90;40.70;;;;;;5004140;28;45310;-57
2023/05/26 12:20:16;;;;;;;;;;;23.90;41.20;;;;;;4981728;28;45328;-59
2023/05/26 12:22:42;;;;;;;;;;;24.00;40.80;;;;;;4988842;28;45476;-60
2023/05/26 12:25:10;;;;;;;;;;;24.00;40.70;;;;;;5002793;28;45963;-59
2023/05/26 12:27:36;;;;;;;;;;;24.00;40.60;;;;;;5005795;28;45694;-61
2023/05/26 12:30:21;;;;;;;;;;;24.00;40.50;;;;;;4984745;28;47146;-63
2023/05/26 12:32:48;;;;;;;;;;;24.00;40.50;;;;;;4937489;28;45256;-60
2023/05/26 12:35:13;;;;;;;;;;;24.00;40.50;;;;;;4998743;28;45314;-61
2023/05/26 12:37:39;;;;;;;;;;;24.00;40.50;;;;;;5004602;28;45641;-54
2023/05/26 12:40:06;;;;;;;;;;;24.10;40.80;;;;;;4982951;28;45456;-58
2023/05/26 12:42:31;;;;;;;;;;;24.10;40.60;;;;;;4984579;28;45232;-53
2023/05/26 12:44:57;;;;;;;;;;;24.10;40.70;;;;;;5003235;28;45354;-51
2023/05/26 12:47:23;;;;;;;;;;;24.10;40.50;;;;;;4994085;28;46434;-54
2023/05/26 12:49:48;;;;;;;;;;;24.20;40.30;;;;;;5003193;28;45982;-53
2023/05/26 12:52:14;;;;;;;;;;;24.20;40.30;;;;;;4999024;28;45222;-55
2023/05/26 12:54:39;;;;;;;;;;;24.20;40.90;;;;;;4980344;28;45045;-55
2023/05/26 12:57:05;;;;;;;;;;;24.20;40.30;;;;;;4998186;28;45788;-55
2023/05/26 12:59:33;;;;;;;;;;;24.20;40.30;;;;;;5003160;28;46204;-53
2023/05/26 13:01:59;;;;;;;;;;;24.20;40.40;;;;;;4994120;28;45300;-49
2023/05/26 13:04:25;;;;;;;;;;;24.20;40.30;;;;;;5001347;28;45005;-57
2023/05/26 13:06:54;;;;;;;;;;;24.20;39.80;;;;;;4999091;23;44880;-84
2023/05/26 13:09:20;;;;;;;;;;;24.20;39.60;;;;;;4926144;28;48495;-83
2023/05/26 13:11:46;;;;;;;;;;;24.20;40.20;;;;;;4947437;28;44874;-84
2023/05/26 13:14:12;;;;;;;;;;;24.20;39.60;;;;;;4943555;28;45146;-83
2023/05/26 13:16:38;;;;;;;;;;;24.30;39.40;;;;;;4935166;28;44802;-85
2023/05/26 13:19:04;;;;;;;;;;;24.40;39.30;;;;;;4948992;28;45407;-86
2023/05/26 13:21:30;;;;;;;;;;;24.40;39.20;;;;;;4939408;28;45205;-86
2023/05/26 13:23:58;;;;;;;;;;;24.40;38.80;;;;;;4934272;28;44984;-85
2023/05/26 13:26:25;;;;;;;;;;;24.40;39.00;;;;;;4943832;28;44868;-86
2023/05/26 13:28:51;;;;;;;;;;;24.40;39.00;;;;;;4927654;28;46664;-85
2023/05/26 13:31:17;;;;;;;;;;;24.40;39.10;;;;;;4930386;28;45162;-82
2023/05/26 13:33:42;;;;;;;;;;;24.40;39.10;;;;;;4946342;28;45306;-83
2023/05/26 13:36:08;;;;;;;;;;;24.40;39.00;;;;;;4945277;28;45503;-83
2023/05/26 13:38:34;;;;;;;;;;;24.40;38.90;;;;;;4957609;28;45251;-82
2023/05/26 13:40:59;;;;;;;;;;;24.40;39.00;;;;;;4950566;28;45120;-81
2023/05/26 13:43:25;;;;;;;;;;;24.40;38.70;;;;;;4944312;28;44808;-82
2023/05/26 13:45:51;;;;;;;;;;;24.40;38.80;;;;;;4939785;28;45435;-85
2023/05/26 13:48:16;;;;;;;;;;;24.40;38.40;;;;;;4941968;28;47047;-86
2023/05/26 13:50:42;;;;;;;;;;;24.40;38.30;;;;;;4946605;28;45448;-86
2023/05/26 13:53:07;;;;;;;;;;;24.40;38.40;;;;;;4942284;28;45187;-86
2023/05/26 13:55:33;;;;;;;;;;;24.40;38.10;;;;;;4946302;28;45129;-85
2023/05/26 13:57:58;;;;;;;;;;;24.50;38.30;;;;;;4947974;28;46898;-86
2023/05/26 14:00:24;;;;;;;;;;;24.50;38.30;;;;;;4954173;28;44625;-84
2023/05/26 14:02:50;;;;;;;;;;;24.50;38.30;;;;;;4980049;28;44891;-85
2023/05/26 14:05:19;;;;;;;;;;;24.60;38.20;;;;;;4992059;28;44729;-85
2023/05/26 14:07:44;;;;;;;;;;;24.60;38.40;;;;;;4967318;28;46318;-85
2023/05/26 14:10:10;;;;;;;;;;;24.60;38.30;;;;;;4954247;28;45578;-84
2023/05/26 14:12:36;;;;;;;;;;;24.60;38.40;;;;;;4958571;28;45092;-84
2023/05/26 14:15:09;;;;;;;;;;;24.60;38.40;;;;;;4950006;28;44812;-84
2023/05/26 14:17:49;;;;;;;;;;;24.60;38.50;;;;;;4965422;28;45209;-83
2023/05/26 14:20:14;;;;;;;;;;;24.60;37.70;;;;;;4948770;28;45355;-84
2023/05/26 14:22:40;;;;;;;;;;;24.60;38.40;;;;;;4949928;28;45073;-84
2023/05/26 14:25:05;;;;;;;;;;;24.70;38.70;;;;;;4949424;28;44929;-83
2023/05/26 14:27:32;;;;;;;;;;;24.70;39.30;;;;;;4949049;28;48034;-84
2023/05/26 14:29:58;;;;;;;;;;;24.70;39.20;;;;;;4950082;28;44757;-85
2023/05/26 14:32:25;;;;;;;;;;;24.70;39.40;;;;;;4953930;28;45344;-85
2023/05/26 14:34:50;;;;;;;;;;;24.70;39.00;;;;;;4961809;28;45092;-86
2023/05/26 14:37:16;;;;;;;;;;;24.80;38.80;;;;;;4983763;28;46768;-86
2023/05/26 14:39:41;;;;;;;;;;;24.80;38.80;;;;;;4950839;28;45129;-85
2023/05/26 14:42:07;;;;;;;;;;;24.80;38.60;;;;;;4947757;28;45028;-86
2023/05/26 14:44:33;;;;;;;;;;;24.80;38.20;;;;;;4967344;28;45162;-85
2023/05/26 14:46:59;;;;;;;;;;;24.90;38.10;;;;;;4960778;28;45576;-85
2023/05/26 14:49:25;;;;;;;;;;;24.90;38.10;;;;;;4949082;28;45389;-84
2023/05/26 14:51:50;;;;;;;;;;;24.90;38.10;;;;;;4941988;28;45424;-86
2023/05/26 14:54:16;;;;;;;;;;;24.90;38.00;;;;;;4964154;28;45515;-86
2023/05/26 14:56:42;;;;;;;;;;;24.90;37.70;;;;;;4963453;28;47046;-85
2023/05/26 14:59:07;;;;;;;;;;;25.00;37.40;;;;;;4962276;28;45152;-85
2023/05/26 15:01:33;;;;;;;;;;;25.00;37.40;;;;;;4945775;28;44940;-90
2023/05/26 15:03:58;;;;;;;;;;;25.00;37.20;;;;;;4962170;28;44821;-86
2023/05/26 15:06:24;;;;;;;;;;;25.00;37.00;;;;;;4972386;28;45296;-90
2023/05/26 15:08:49;;;;;;;;;;;25.10;37.00;;;;;;4963245;28;44954;-89
2023/05/26 15:11:15;;;;;;;;;;;25.10;36.90;;;;;;4964879;28;44658;-90
2023/05/26 15:13:40;;;;;;;;;;;25.10;37.10;;;;;;4951995;28;44785;-88
2023/05/26 15:16:06;;;;;;;;;;;25.10;37.00;;;;;;4947191;28;48179;-91
2023/05/26 15:18:31;;;;;;;;;;;25.10;37.00;;;;;;4978482;28;45135;-90
2023/05/26 15:20:59;;;;;;;;;;;25.10;37.10;;;;;;4947876;28;45071;-90
2023/05/26 15:23:28;;;;;;;;;;;25.10;37.40;;;;;;4937581;28;45163;-87
2023/05/26 15:25:54;;;;;;;;;;;25.10;37.40;;;;;;4959815;28;47369;-89
2023/05/26 15:28:57;;;;;;;;;;;25.20;37.70;;;;;;4962319;28;44630;-87
2023/05/26 15:32:09;;;;;;;;;;;25.20;37.70;;;;;;4992433;28;45183;-85
2023/05/26 15:34:34;;;;;;;;;;;25.20;38.00;;;;;;4952277;28;45427;-85
2023/05/26 15:37:00;;;;;;;;;;;25.20;38.10;;;;;;4947939;28;45313;-86
2023/05/26 15:39:26;;;;;;;;;;;25.20;38.20;;;;;;4957269;28;46320;-87
2023/05/26 15:41:52;;;;;;;;;;;25.20;38.00;;;;;;4948707;28;45182;-85
2023/05/26 15:44:17;;;;;;;;;;;25.20;37.90;;;;;;4952436;28;45186;-86
2023/05/26 15:46:43;;;;;;;;;;;25.20;37.90;;;;;;4967859;28;45408;-89
2023/05/26 15:49:08;;;;;;;;;;;25.20;38.10;;;;;;4943388;28;44979;-91
2023/05/26 15:51:35;;;;;;;;;;;25.20;37.90;;;;;;4942693;28;44943;-92
2023/05/26 15:54:00;;;;;;;;;;;25.20;37.80;;;;;;4950245;28;44665;-91
2023/05/26 15:56:26;;;;;;;;;;;25.20;37.70;;;;;;4963044;28;46944;-91
2023/05/26 15:58:52;;;;;;;;;;;25.20;37.80;;;;;;4959278;28;45226;-91
2023/05/26 16:01:17;;;;;;;;;;;25.20;37.90;;;;;;4945085;28;45210;-91
2023/05/26 16:03:43;;;;;;;;;;;25.20;37.90;;;;;;4959190;28;45219;-91
2023/05/26 16:06:09;;;;;;;;;;;25.20;37.70;;;;;;4962405;28;45130;-91
2023/05/26 16:08:36;;;;;;;;;;;25.20;37.50;;;;;;4931456;28;45275;-91
2023/05/26 16:11:02;;;;;;;;;;;25.20;37.60;;;;;;4946103;28;44949;-91
2023/05/26 16:13:27;;;;;;;;;;;25.20;37.50;;;;;;4928941;28;45542;-91
2023/05/26 16:15:53;;;;;;;;;;;25.20;37.30;;;;;;4930252;28;46785;-91
2023/05/26 16:18:18;;;;;;;;;;;25.20;37.30;;;;;;4927122;28;45284;-91
2023/05/26 16:20:44;;;;;;;;;;;25.20;37.20;;;;;;4928623;28;45341;-92
2023/05/26 16:23:09;;;;;;;;;;;25.20;37.50;;;;;;4940429;28;45514;-91
2023/05/26 16:25:35;;;;;;;;;;;25.20;37.50;;;;;;4944960;28;48073;-90
2023/05/26 16:28:01;;;;;;;;;;;25.20;36.90;;;;;;4928241;28;45331;-91
2023/05/26 16:30:27;;;;;;;;;;;25.20;37.00;;;;;;4915043;28;45047;-91
2023/05/26 16:32:53;;;;;;;;;;;25.20;37.00;;;;;;4927665;28;45204;-91
2023/05/26 16:35:20;;;;;;;;;;;25.20;36.90;;;;;;4927792;28;45199;-91
2023/05/26 16:37:45;;;;;;;;;;;25.10;36.80;;;;;;4926013;28;45215;-91
2023/05/26 16:40:11;;;;;;;;;;;25.10;36.90;;;;;;4932917;28;45262;-91
2023/05/26 16:42:36;;;;;;;;;;;25.10;36.90;;;;;;4949262;28;44777;-90
2023/05/26 16:45:05;;;;;;;;;;;25.10;37.00;;;;;;4942478;28;47248;-91
2023/05/26 16:47:31;;;;;;;;;;;25.10;37.00;;;;;;4926144;28;45120;-91
2023/05/26 16:49:56;;;;;;;;;;;25.10;36.80;;;;;;4925680;28;45076;-84
2023/05/26 16:52:22;;;;;;;;;;;25.10;36.80;;;;;;4936315;28;45191;-85
2023/05/26 16:54:47;;;;;;;;;;;25.00;36.80;;;;;;4937589;28;45364;-85
2023/05/26 16:57:13;;;;;;;;;;;25.10;36.80;;;;;;4944343;28;45189;-84
2023/05/26 16:59:38;;;;;;;;;;;25.00;36.90;;;;;;4937882;28;45335;-85
2023/05/26 17:02:05;;;;;;;;;;;25.00;37.00;;;;;;4943397;28;45323;-86
2023/05/26 17:04:30;;;;;;;;;;;25.00;37.10;;;;;;4939034;28;46613;-86
2023/05/26 17:06:56;;;;;;;;;;;25.00;37.20;;;;;;4944725;28;45113;-86
2023/05/26 17:09:21;;;;;;;;;;;25.00;37.40;;;;;;4951056;28;45593;-86
2023/05/26 17:11:47;;;;;;;;;;;25.00;37.60;;;;;;4945871;28;44907;-86
2023/05/26 17:14:12;;;;;;;;;;;25.00;37.60;;;;;;4962765;28;45570;-85
2023/05/26 17:16:39;;;;;;;;;;;25.00;37.90;;;;;;4965306;28;45258;-86
2023/05/26 17:19:05;;;;;;;;;;;25.00;37.90;;;;;;4954449;28;44732;-85
2023/05/26 17:21:30;;;;;;;;;;;25.00;37.80;;;;;;4943832;28;45256;-86
2023/05/26 17:23:56;;;;;;;;;;;25.00;37.50;;;;;;4944407;28;46761;-85
2023/05/26 17:26:21;;;;;;;;;;;25.00;37.30;;;;;;4950704;28;45310;-86
2023/05/26 17:28:47;;;;;;;;;;;24.90;37.10;;;;;;4958487;28;44811;-86
2023/05/26 17:31:13;;;;;;;;;;;24.90;37.00;;;;;;4968908;28;44953;-85
2023/05/26 17:33:39;;;;;;;;;;;24.90;37.70;;;;;;4950734;28;46924;-87
2023/05/26 17:36:04;;;;;;;;;;;24.90;37.00;;;;;;4951445;28;45602;-86